Racecast

Austin Beaver

Northwest Cabarrus (NC) · 12 · SPCNC D5ACABARRUS · Compare head to head

Athlete ratingi 122.4 2018 TF season
Best race 122.4 TF
Races 75
Seasons 5 2014 — 2018

RankedNation #9452·NC #209·NC D5A #77·SPC #5·Team #2 ?

Speed rating — all races

Cross Country

XC speed rating

2017 XC 118.4

Northwest Cabarrus (NC) · Grade 12

Date Meet Event Result Place Ratingi Difficultyi PR/SR Flags
2017-11-04 Ivey Redmon Sports Complex 5000m 17:43.9 118th · 1st on team 117.8 -0.8% ★CR CSR
2017-10-28 McAlpine Creek Park 5000m 17:17.4 38th · 1st on team 120.3 -1.6% ★PR ★CR SR CSR
2017-10-17 Vietnam Veteran's Park 5000m 17:39 4th · 1st on team 119.5 +0.1% ★CR CSR
2017-10-07 McAlpine Creek Park 5000m 17:21.9 30th · 1st on team 118.6 -1.6% PR CR SR CSR
2017-10-03 Frank Lisk Park 5000m 17:26 3rd · 1st on team 120.7 +0.4% ★CR CSR RSR
2017-09-23 McAlpine Creek Park 5000m 17:30.4 24th · 1st on team 120.0 -1.6% CR CSR RSR
2017-09-19 Central Cabarrus HS 5000m 19:47 7th · 1st on team 110.9 +3.9% ★CR CSR
2017-09-14 McAnderson Park 5000m 17:24 9th · 1st on team 119.5 -0.4% PR ★CR SR CSR RSR
2017-09-05 Frank Lisk Park 3218m 11:25 5th · 1st on team 118.9 +4.8% ★PR ★CR SR CSR RSR
2017-08-26 Jackson Park 5000m 17:46.5 9th · 1st on team 117.3 +0.8% ★CR SR CSR RSR

2016 XC 111.6

Northwest Cabarrus (NC) · Grade 11

Date Meet Event Result Place Ratingi Difficultyi PR/SR Flags
2016-10-29 McAlpine Creek Park 5000m 17:38 37th · 3rd on team 118.6 -1.6% PR CR SR CSR
2016-10-18 Salisbury Community Park 5000m 19:01 20th · 3rd on team 114.7 +2.4% ★CR CSR
2016-10-06 A.L. Brown High School 5000m 17:51 5th · 3rd on team 118.7 +0.4% PR ★CR SR CSR RSR
2016-10-01 McAlpine Creek Park 5000m 19:01.2 129th · 5th on team 109.4 -1.6%
2016-09-17 McAlpine Creek Park 5000m 17:53.1 80th · 3rd on team 116.4 -1.6% PR CR SR CSR RSR
2016-09-06 Frank Lisk Park 3200m 11:40.4 6th · 1st on team 115.8 +4.8% ★PR ★CR SR CSR RSR
2016-08-30 West Rowan High School 5000m 27:05 127th · 12th on team 84.7 +8.0% ★CR CSR
2016-08-27 Jackson Park 5000m 18:38.1 12th · 1st on team 114.2 +0.8% PR CR SR CSR RSR

2014 XC 105.8

Northwest Cabarrus (NC) · Grade 9

Date Meet Event Result Place Ratingi Difficultyi PR/SR Flags
2014-10-04 McAlpine Creek Park 5000m 19:18 155th · 2nd on team 107.5 -1.6%
2014-09-30 Vietnam Veteran's Park 5000m 20:03 39th · 9th on team 105.6 +0.1% CR CSR
2014-09-20 McAlpine Creek Park 5000m 19:15.8 82nd · 2nd on team 107.8 -1.6% PR CR R SR CSR RSR
2014-09-16 Salisbury Community Park 5000m 20:27.6 50th · 7th on team 105.9 +2.4% CR R CSR RSR
2014-09-09 McAnderson Park 5000m 19:47.3 24th · 2nd on team 105.4 -0.4% PR CR SR CSR
2014-09-02 Frank Lisk Park 3218m 12:49 15th · 5th on team 105.8 +4.8% PR CR R SR CSR RSR
2014-08-23 Jackson Park 3000m 11:08.5 4th · 1st on team 102.6 -5.9% ★PR ★CR R SR CSR RSR

Track & Field

TF speed rating

2018 TF 117.5

Northwest Cabarrus (NC) · Grade 12

Date Meet Event Result Place Ratingi Difficultyi PR/SR Flags
2018-05-11 NCHSAA 3A Midwest Regional 800m 2:02.55 14th · 1st on team 122.4 -1.3% ★PR ★R SR RSR
2018-05-11 3A Midwest Regionals 800m 2:02.55 14th · 1st on team 122.4 -1.3%
2018-05-01 Cabarrus County Championships 1600m 4:47.3 4th · 1st on team 118.4 -0.3% ★PR SR
2018-05-01 Cabarrus County Championships 800m 2:04 2nd · 1st on team 122.1 -0.3% SR
2018-04-19 West Rowan Event 3 800m 2:07.3 1st · 1st on team 120.3 +0.7%
2018-04-19 West Rowan Event 3 1600m 4:53.4 2nd · 1st on team 117.3 +0.7%
2018-04-12 Central Cabarrus, Carson, Northwest Cabarrus @ AL Brown 800m 2:06 1st · 1st on team 120.3 -0.3%
2018-03-27 Central Cabarrus, Statesville, Northwest 3200m 12:29 9th · 6th on team 99.2 +0.2% SR
2018-03-27 Statesville Meet #4 3200m 12:29 9th · 6th on team 99.2 +0.2%
2018-03-27 Central Cabarrus, Statesville, Northwest 800m 2:04.7 1st · 1st on team 122.4 +0.2% R SR RSR
2018-03-27 Statesville Meet #4 800m 2:04.7 1st · 1st on team 122.4 +0.2%
2018-03-24 Times-News Invitational 1600m 4:50.93 10th · 1st on team 117.4 -0.2% PR SR
2018-03-24 Times-News Invitational 800m 2:06.25 4th · 1st on team 120.3 -0.2%
2018-03-22 South Iredell #1 1600m 4:55.8 3rd · 1st on team 116.3 +0.7% PR SR
2018-03-17 Trojan Invitational 800m 2:08.43 9th · 1st on team 118.6 -0.1%
2018-03-15 Statesville Home Meet 800m 2:06 1st · 1st on team 120.8 +0.2% SR RSR

2017 TF 116.3

Northwest Cabarrus (NC) · Grade 11

Date Meet Event Result Place Ratingi Difficultyi PR/SR Flags
2017-05-13 NCHSAA 3A Midwest Regional 800m 2:06.74 15th · 1st on team 118.5 -0.6%
2017-05-03 SPC Conference Championships 3200m 11:02.42 9th · 3rd on team 111.6 0.0% ★PR SR
2017-05-03 Southern Piedmont Conference Championship 3200m 11:02.42 9th · 3rd on team 111.6 0.0%
2017-05-03 Southern Piedmont Conference Championship 800m 2:03.93 6th · 2nd on team 122.1 0.0% PR R SR RSR
2017-05-03 SPC Conference Championships 800m 2:03.93 6th · 2nd on team 122.1 0.0%
2017-04-27 Con,NWC,HR,JMR at West Rowan 800m 2:08.1 5th · 2nd on team 119.2 +1.0%
2017-04-27 Con,NWC,HR,JMR at West Rowan 1600m 4:58.1 6th · 2nd on team 115.2 +1.0%
2017-04-27 Con,NWC,HR,JMR at West Rowan 3200m 11:11.2 9th · 4th on team 111.0 +1.0%
2017-04-26 West Rowan Home Meet 1600m 4:58.03 4th · 1st on team 115.1 +0.7% SR
2017-04-26 West Rowan Home Meet 3200m 11:11.16 5th · 2nd on team 110.9 +0.7% PR SR
2017-04-12 Cabarrus County Championship 800m 2:07 4th · 3rd on team 118.6 -0.1%
2017-04-11 Cabarrus County Public Schools Championships 800m 2:06.6 4th · 3rd on team 119.6 -0.1%
2017-04-08 Appalachian State University HS Invitational 800m 2:06.11 6th · 2nd on team 120.4 +0.3% R SR RSR
2017-03-22 CM,NWC,JMR,HR at Wesr Rowan 800m 2:08.1 2nd · 1st on team 119.2 +1.0% SR RSR
2017-03-07 Cabarrus Co Kickoff Time Trials 1600m 5:06 5th · 2nd on team 111.5 -0.1% SR RSR
2017-03-07 Cabarrus Co Kickoff Time Trials 800m 2:13.5 3rd · 2nd on team 113.6 -0.1% SR RSR

2016 TF 115.2

Northwest Cabarrus (NC) · Grade 10

Date Meet Event Result Place Ratingi Difficultyi PR/SR Flags
2016-05-05 SPC Championships 800m 2:05.79 6th · 3rd on team 120.2 0.0% R RSR
2016-04-28 SPC Meet 3 3200m 12:04.6 8th · 2nd on team 102.4 +0.5%
2016-04-28 SPC Meet 3 800m 2:06.5 2nd · 2nd on team 120.0 +0.5%
2016-04-19 Cabarrus County Meet 800m 2:05.4 4th · 2nd on team 120.1 -0.3% PR R SR RSR
2016-04-16 Patriot Dawg Invitational 800m 2:07.41 5th · 2nd on team 118.4 0.0%
2016-04-13 East Rowan Meet #6 800m 2:07.29 2nd · 1st on team 118.5 0.0% PR R SR RSR
2016-04-07 East Rowan Meet #5 800m 2:09.9 2nd · 2nd on team 117.0 0.0% R RSR
2016-03-23 JM Robinson Meet #1 3200m 11:27.1 4th · 1st on team 105.6 -1.8% PR SR
2016-03-19 Marvin Ridge Invitational 800m 2:09.21 15th · 1st on team 116.5 -0.6% PR R SR RSR
2016-03-17 West Rowan 2 1600m 5:01.56 5th · 2nd on team 113.8 +1.0%
2016-03-10 MP Nonconference #1 1600m 4:57.2 4th · 3rd on team 114.6 -0.1% PR R SR RSR
2016-03-10 MP Nonconference #1 800m 2:10.8 4th · 3rd on team 115.6 -0.1% PR R SR RSR

2015 TF 104.8

Northwest Cabarrus (NC) · Grade 9

Date Meet Event Result Place Ratingi Difficultyi PR/SR Flags
2015-03-19 Er,hr,nwc 800m 2:18.5 9th · 4th on team 110.3 +1.0% PR R SR RSR
2015-03-12 Con,CM, 800m 2:24.6 5th · 2nd on team 105.3 +1.0% PR SR RSR
2015-01-24 JDL HS Invitational 1000m 3:06.23 47th · 1st on team 105.3 -1.4% ★PR SR RSR
2015-01-16 JDL Mini Meet Section 1 1000m 3:10.46 25th · 1st on team 102.9 -1.4%
2014-12-20 Ncrunners Holiday Invitational 1000m 3:13.66 55th · 2nd on team 101.1 -1.4%
2014-12-13 JDL Mini-Meet #2 PM 1000m 3:08.67 19th · 2nd on team 103.8 -1.4% PR SR RSR